Nantucket, MA

5:47 AM EDT on May 25, 2015 (GMT -0400)
Nantucket Memorial | | Change Station
CLOSE
Current Station
Airport
Location: Nantucket,
Elevation: 46 ft
Nearby Weather Stations

Elev 46 ft 41.25 °N, 70.06 °W | Updated 54 minutes ago

Partly Cloudy
Partly Cloudy
55 °F
Feels Like 55 °F
N
12
Wind Variable Wind from SW

Today
High -- | Low -- °F
--% Chance of Precip.
Yesterday
High -- | Low -- °F
Precip. -- in
5:13 AM 8:01 PM
Waxing Crescent, 47% visible
Pressure 30.29 in
Visibility 10.0 miles
Clouds Clear
Dew Point 51 °F
Humidity 86%
Rainfall 0.00 in
Snow Depth Not available.
UV 0 out of 12
Pollen 10.00 out of 12
Air Quality Not available.
Flu Activity Local Activity
METAR KACK 250853Z AUTO 23010KT 10SM CLR 13/11 A3028 RMK AO2 SLP255 T01280106 53001

More Conditions Fewer Conditions

Pressure 30.29 in
Visibility 10.0 miles
Clouds Clear
Dew Point 51 °F
Humidity 86%
Rainfall 0.00 in
Snow Depth Not available.
UV 0 out of 12
Pollen 10.00 out of 12
Air Quality Not available.
Flu Activity Local Activity
METAR KACK 250853Z AUTO 23010KT 10SM CLR 13/11 A3028 RMK AO2 SLP255 T01280106 53001

More Conditions Fewer Conditions

10-Day Weather Forecast

Almanac

Astronomy

May. 25, 2015 Rise Set
Actual Time
Civil Twilight
Nautical Twilight
Astronomical Twilight
Moon
Length of Visible Light
Length of Day
Tomorrow will be .
, % of the Moon is Illuminated

Today's Extremes

State Highs State Lows

Community

WunderPhotos

Upload Photos

1,823,963 photos uploaded!

WunderBlogs® & News

Nearby

Air Quality

  Air Quality AQ Index Pollutant
Not available.

Snow Depth

Station Depth Elevation

Earthquake Activity

City Distance Mag. Time & Date
Minimum magnitude displayed is 2.5.

Coastal Water Temperatures

Place Temperature

Stations

Nearby Weather Stations

Station Location Temp. Windchill Dew Point Humidity Wind Precip. Elev Updated Type